Time;durP1;ratioP1;P1;durP2;ratioP2;P2;SDS_P1;SDS_P2;PMS_P1;PMS_P2;Temp;Humidity;BMP_temperature;BMP_pressure;BME280_temperature;BME280_humidity;BME280_pressure;Samples;Min_cycle;Max_cycle;Signal;HPM_P1;HPM_P2
2022/03/20 00:01:18;;;;;;;7.07;4.18;;;;;;;-6.69;72.01;97041.44;5020145;28;20678;-46
2022/03/20 00:03:46;;;;;;;9.77;5.03;;;;;;;-6.76;72.61;97033.28;5021764;28;20041;-45
2022/03/20 00:06:12;;;;;;;7.25;3.72;;;;;;;-6.79;72.92;97031.72;5021223;28;20064;-46
2022/03/20 00:08:39;;;;;;;5.65;3.42;;;;;;;-6.76;72.61;97036.63;5021997;28;20100;-45
2022/03/20 00:11:06;;;;;;;5.78;3.60;;;;;;;-6.79;72.30;97031.72;5021475;28;20045;-52
2022/03/20 00:13:33;;;;;;;6.90;3.33;;;;;;;-6.73;71.93;97041.56;5020897;28;20042;-50
2022/03/20 00:15:59;;;;;;;8.02;4.05;;;;;;;-6.74;71.87;97042.44;5019797;28;20045;-49
2022/03/20 00:18:27;;;;;;;9.18;3.30;;;;;;;-6.83;71.48;97030.19;5020768;28;20073;-46
2022/03/20 00:20:57;;;;;;;5.28;3.17;;;;;;;-6.80;71.50;97047.00;5021068;28;20049;-49
2022/03/20 00:23:24;;;;;;;5.10;2.92;;;;;;;-6.85;71.62;97047.19;5022296;28;20069;-46
2022/03/20 00:25:52;;;;;;;5.13;3.30;;;;;;;-6.85;72.17;97052.25;5020660;28;20120;-47
2022/03/20 00:28:23;;;;;;;19.42;4.63;;;;;;;-6.89;72.55;97048.22;5020857;28;20080;-47
2022/03/20 00:30:51;;;;;;;13.25;5.50;;;;;;;-6.93;72.83;97039.13;5021659;28;20124;-48
2022/03/20 00:33:18;;;;;;;10.43;4.70;;;;;;;-6.95;73.26;97045.94;5022945;28;20132;-47
2022/03/20 00:35:45;;;;;;;9.38;4.15;;;;;;;-7.08;73.20;97039.78;5020790;28;20518;-47
2022/03/20 00:38:12;;;;;;;7.63;3.83;;;;;;;-7.17;73.51;97036.75;5023470;28;20426;-49
2022/03/20 00:40:39;;;;;;;7.55;4.10;;;;;;;-7.26;73.42;97037.16;5020155;28;20581;-47
2022/03/20 00:43:07;;;;;;;9.02;4.03;;;;;;;-7.35;74.26;97032.50;5021155;28;20557;-46
2022/03/20 00:45:35;;;;;;;7.75;4.05;;;;;;;-7.34;73.91;97029.09;5019332;28;20118;-50
2022/03/20 00:48:02;;;;;;;8.80;3.60;;;;;;;-7.37;73.60;97030.03;5020896;28;20461;-48
2022/03/20 00:50:29;;;;;;;6.05;3.50;;;;;;;-7.48;73.83;97031.41;5020492;28;20403;-51
2022/03/20 00:52:57;;;;;;;6.90;4.00;;;;;;;-7.48;74.09;97036.47;5020046;28;20041;-51
2022/03/20 00:55:24;;;;;;;7.82;3.95;;;;;;;-7.58;74.03;97021.69;5020801;28;20041;-46
2022/03/20 00:57:51;;;;;;;5.68;3.83;;;;;;;-7.48;73.54;97031.41;5020105;28;20041;-47
2022/03/20 01:00:18;;;;;;;7.22;3.72;;;;;;;-7.53;73.80;97029.88;5019211;28;20053;-47
2022/03/20 01:02:45;;;;;;;12.15;3.75;;;;;;;-7.53;74.25;97027.34;5019868;28;20769;-49
2022/03/20 01:05:14;;;;;;;14.55;5.90;;;;;;;-7.45;74.78;97028.72;5022912;28;20120;-50
2022/03/20 01:07:42;;;;;;;6.82;4.07;;;;;;;-7.35;74.12;97017.31;5019479;28;20060;-47
2022/03/20 01:10:11;;;;;;;11.25;6.28;;;;;;;-7.35;73.79;97017.31;5019697;28;20056;-46
2022/03/20 01:12:39;;;;;;;9.40;4.32;;;;;;;-7.42;73.47;97015.94;5019809;28;20608;-45
2022/03/20 01:15:08;;;;;;;7.15;3.58;;;;;;;-7.60;73.67;97017.56;5020469;28;20120;-47
2022/03/20 01:17:35;;;;;;;5.35;2.80;;;;;;;-7.64;74.18;97011.78;5019898;28;20045;-47
2022/03/20 01:20:04;;;;;;;6.85;3.50;;;;;;;-7.64;74.27;97011.78;5019779;28;20048;-47
2022/03/20 01:22:30;;;;;;;8.40;3.95;;;;;;;-7.70;74.66;97012.88;5020526;28;20423;-50
2022/03/20 01:24:57;;;;;;;6.03;3.22;;;;;;;-7.89;75.32;96992.59;5021060;28;20045;-50
2022/03/20 01:27:24;;;;;;;8.98;4.60;;;;;;;-7.78;75.33;97009.84;5020311;28;20034;-49
2022/03/20 01:29:51;;;;;;;7.82;3.38;;;;;;;-7.85;75.46;97012.69;5022090;28;20062;-46
2022/03/20 01:32:18;;;;;;;5.55;3.78;;;;;;;-7.96;76.07;97010.63;5019411;28;20044;-50
2022/03/20 01:34:44;;;;;;;12.68;6.57;;;;;;;-8.04;77.62;97007.59;5020321;28;20060;-48
2022/03/20 01:37:11;;;;;;;9.27;4.95;;;;;;;-7.97;77.51;97003.94;5021051;28;20037;-46
2022/03/20 01:39:38;;;;;;;6.68;3.90;;;;;;;-7.96;76.65;97011.44;5020388;28;20594;-46
2022/03/20 01:42:08;;;;;;;5.47;3.33;;;;;;;-7.97;76.45;97009.78;5020625;28;20546;-48
2022/03/20 01:44:35;;;;;;;6.75;4.45;;;;;;;-8.03;76.57;97015.13;5022331;28;20037;-45
2022/03/20 01:47:06;;;;;;;15.10;6.88;;;;;;;-8.15;78.23;97020.66;5021490;28;20049;-45
2022/03/20 01:49:33;;;;;;;29.77;8.57;;;;;;;-8.10;78.44;97033.97;5018027;28;20509;-47
2022/03/20 01:52:14;;;;;;;15.85;7.97;;;;;;;-8.12;78.44;97034.00;5021472;28;20042;-47
2022/03/20 01:54:44;;;;;;;17.20;7.25;;;;;;;-8.18;79.15;97015.72;5021035;28;20131;-48
2022/03/20 01:57:20;;;;;;;14.30;7.28;;;;;;;-8.08;78.88;97027.13;5018928;28;20096;-45
2022/03/20 01:59:51;;;;;;;14.25;8.27;;;;;;;-8.08;79.10;97032.19;5020662;28;20060;-47
2022/03/20 02:02:19;;;;;;;14.65;7.82;;;;;;;-8.18;79.14;97035.97;5023725;28;20033;-49
2022/03/20 02:04:47;;;;;;;9.95;5.55;;;;;;;-8.19;79.53;97030.09;5019258;28;20072;-45
2022/03/20 02:07:15;;;;;;;13.60;5.22;;;;;;;-8.21;79.69;97036.91;5017828;28;20081;-51
2022/03/20 02:09:42;;;;;;;8.45;5.50;;;;;;;-8.23;79.70;97037.84;5020792;28;20056;-49
2022/03/20 02:12:11;;;;;;;8.23;4.75;;;;;;;-8.37;79.13;97041.75;5019343;28;20049;-48
2022/03/20 02:14:38;;;;;;;9.65;5.45;;;;;;;-8.38;78.62;97034.22;5018657;28;20487;-49
2022/03/20 02:17:06;;;;;;;7.88;3.80;;;;;;;-8.55;78.42;97032.38;5021004;28;20044;-45
2022/03/20 02:19:36;;;;;;;7.55;4.13;;;;;;;-8.75;78.27;97018.81;5020213;28;20057;-46
2022/03/20 02:22:03;;;;;;;5.18;3.17;;;;;;;-8.70;78.72;97029.53;5023812;28;20042;-47
2022/03/20 02:24:32;;;;;;;8.00;3.83;;;;;;;-8.79;79.47;97029.91;5018932;28;20038;-44
2022/03/20 02:27:03;;;;;;;7.60;3.58;;;;;;;-8.75;79.52;97031.44;5018150;28;20056;-48
2022/03/20 02:29:30;;;;;;;4.53;3.58;;;;;;;-8.70;79.28;97028.72;5017145;28;20545;-47
2022/03/20 02:31:59;;;;;;;6.43;3.95;;;;;;;-8.76;79.26;97027.25;5019004;28;20052;-48
2022/03/20 02:34:30;;;;;;;7.70;4.53;;;;;;;-8.73;79.21;97028.84;5021338;28;20555;-49
2022/03/20 02:36:59;;;;;;;11.80;5.15;;;;;;;-8.84;79.46;97021.66;5020741;28;20144;-45
2022/03/20 02:39:26;;;;;;;6.10;3.70;;;;;;;-8.86;80.27;97018.38;5018233;28;20050;-49
2022/03/20 02:41:54;;;;;;;7.75;3.65;;;;;;;-8.75;79.98;97031.44;5021561;28;20127;-48
2022/03/20 02:45:06;;;;;;;4.43;3.03;;;;;;;-8.79;79.75;97029.91;5020644;28;20465;-46
2022/03/20 02:47:35;;;;;;;8.65;3.67;;;;;;;-8.95;79.65;97029.63;5021116;28;20485;-47
2022/03/20 02:50:20;;;;;;;8.23;3.80;;;;;;;-9.05;80.18;97019.06;5020653;28;20037;-44
2022/03/20 02:52:57;;;;;;;10.07;4.03;;;;;;;-9.06;81.09;97012.38;5023811;28;20654;-45
2022/03/20 02:55:25;;;;;;;7.85;5.47;;;;;;;-9.06;81.36;97027.50;5026828;28;20049;-46
2022/03/20 02:57:55;;;;;;;8.88;4.32;;;;;;;-9.16;82.40;97018.66;5026215;28;20099;-52
2022/03/20 03:00:25;;;;;;;8.18;4.70;;;;;;;-9.14;82.27;97014.38;5021043;28;20056;-50
2022/03/20 03:02:55;;;;;;;15.05;4.50;;;;;;;-9.12;83.09;97012.59;5025519;28;20048;-49
2022/03/20 03:05:24;;;;;;;7.43;4.15;;;;;;;-9.11;83.28;97026.88;5024755;28;20048;-47
2022/03/20 03:10:56;;;;;;;7.72;5.60;;;;;;;-8.97;82.49;97020.50;5021795;28;20053;-47
2022/03/20 03:13:39;;;;;;;13.45;3.78;;;;;;;-8.97;83.12;97010.38;5022995;28;20053;-48
2022/03/20 03:16:11;;;;;;;6.88;3.50;;;;;;;-8.91;82.76;97010.16;5023618;28;20048;-48
2022/03/20 03:18:40;;;;;;;13.15;7.35;;;;;;;-8.90;82.11;97006.75;5022072;28;20041;-45
2022/03/20 03:21:17;;;;;;;5.82;3.95;;;;;;;-8.88;81.82;97020.13;5024690;28;20064;-50
2022/03/20 03:23:44;;;;;;;6.07;4.00;;;;;;;-8.92;82.12;97018.63;5025213;28;20477;-48
2022/03/20 03:26:12;;;;;;;8.25;4.20;;;;;;;-8.94;81.62;97010.28;5021561;28;20048;-48
2022/03/20 03:28:40;;;;;;;9.15;4.00;;;;;;;-8.96;81.82;97012.03;5020767;28;20037;-51
2022/03/20 03:31:09;;;;;;;6.75;4.10;;;;;;;-9.05;81.99;96998.88;5020932;28;20075;-46
2022/03/20 03:35:41;;;;;;;4.90;3.10;;;;;;;-8.99;81.55;97012.16;5020475;28;20045;-46
2022/03/20 03:36:25;;;;;;;11.13;4.00;;;;;;;-9.11;81.69;97014.25;5022741;28;20045;-48
2022/03/20 03:38:53;;;;;;;8.65;4.30;;;;;;;-9.16;82.44;97011.06;5022225;28;20045;-47
2022/03/20 03:41:19;;;;;;;11.32;6.43;;;;;;;-9.13;82.74;97018.50;5022240;28;20124;-49
2022/03/20 03:43:46;;;;;;;8.77;4.75;;;;;;;-9.12;82.90;97022.69;5022214;28;20045;-45
2022/03/20 03:46:13;;;;;;;7.57;5.05;;;;;;;-9.10;82.83;97028.50;5021108;28;20037;-45
2022/03/20 03:48:40;;;;;;;10.98;4.05;;;;;;;-9.15;83.46;97022.81;5021274;28;20048;-47
2022/03/20 03:51:07;;;;;;;8.40;4.45;;;;;;;-9.15;84.46;97025.31;5021663;28;20107;-46
2022/03/20 03:53:34;;;;;;;18.73;4.22;;;;;;;-9.01;83.67;97026.53;5020185;28;20104;-47
2022/03/20 03:56:01;;;;;;;7.07;3.42;;;;;;;-8.95;83.67;97034.69;5021380;28;20061;-51
2022/03/20 03:58:27;;;;;;;8.15;4.13;;;;;;;-8.97;84.09;97025.53;5021592;28;20088;-47
2022/03/20 04:00:54;;;;;;;6.15;4.13;;;;;;;-8.90;83.95;97025.25;5022398;28;20094;-50
2022/03/20 04:03:22;;;;;;;9.52;4.78;;;;;;;-8.86;84.13;97024.28;5020715;28;20129;-46
2022/03/20 04:05:49;;;;;;;8.05;3.88;;;;;;;-8.88;84.16;97026.00;5021101;28;20053;-48
2022/03/20 04:08:16;;;;;;;8.85;5.45;;;;;;;-8.78;83.55;97025.69;5020955;28;20033;-51
2022/03/20 04:10:43;;;;;;;5.97;3.88;;;;;;;-8.84;82.70;97021.66;5021231;28;20038;-52
2022/03/20 04:13:12;;;;;;;11.95;5.35;;;;;;;-8.87;83.13;97021.81;5021335;28;20053;-47
2022/03/20 04:15:39;;;;;;;10.27;5.22;;;;;;;-8.94;82.94;97025.44;5026566;28;20057;-47
2022/03/20 04:18:08;;;;;;;7.43;4.65;;;;;;;-9.06;82.84;97022.47;5021341;28;20179;-47
2022/03/20 04:20:37;;;;;;;6.55;4.65;;;;;;;-9.13;83.54;97031.13;5020394;28;20042;-46
2022/03/20 04:25:49;;;;;;;6.20;3.97;;;;;;;-9.30;83.15;97025.91;5025412;28;20465;-46
2022/03/20 04:28:19;;;;;;;9.55;6.00;;;;;;;-9.34;83.58;97031.94;5021533;28;20449;-45
2022/03/20 04:30:48;;;;;;;10.45;5.63;;;;;;;-9.32;84.10;97025.13;5020022;28;20486;-46
2022/03/20 04:33:15;;;;;;;22.38;11.05;;;;;;;-9.30;85.04;97023.38;5021634;28;20052;-47
2022/03/20 04:35:41;;;;;;;20.20;9.68;;;;;;;-9.25;85.13;97029.09;5020764;28;20541;-48
2022/03/20 04:38:08;;;;;;;17.60;8.65;;;;;;;-9.24;84.88;97028.19;5025870;28;20033;-48
2022/03/20 04:40:35;;;;;;;24.58;11.80;;;;;;;-9.27;85.54;97028.31;5020065;28;20045;-45
2022/03/20 04:43:02;;;;;;;18.80;10.02;;;;;;;-9.24;85.79;97020.63;5019961;28;20049;-49
2022/03/20 04:45:29;;;;;;;13.80;9.50;;;;;;;-9.22;85.45;97026.44;5020312;28;20042;-50
2022/03/20 04:58:58;;;;;;;19.52;11.57;;;;;;;-8.89;86.30;97048.81;5019786;28;20116;-45
2022/03/20 05:01:24;;;;;;;20.50;10.48;;;;;;;-8.82;86.08;97040.13;5019959;28;20058;-48
2022/03/20 05:03:51;;;;;;;19.67;9.88;;;;;;;-8.73;85.98;97049.88;5017641;28;20522;-49
2022/03/20 05:06:18;;;;;;;19.08;8.98;;;;;;;-8.66;85.44;97045.41;5021685;28;20056;-49
2022/03/20 05:08:46;;;;;;;14.95;7.18;;;;;;;-8.67;84.88;97044.59;5019335;28;20057;-46
2022/03/20 05:13:59;;;;;;;21.13;10.60;;;;;;;-8.51;83.72;97054.13;5019870;28;20058;-46
2022/03/20 05:16:25;;;;;;;28.20;11.85;;;;;;;-8.38;83.76;97057.78;5020145;28;20095;-49
2022/03/20 05:18:53;;;;;;;27.25;10.32;;;;;;;-8.30;83.30;97063.38;5020220;28;20629;-49
2022/03/20 05:21:20;;;;;;;21.83;10.85;;;;;;;-8.23;83.42;97068.19;5018396;28;20571;-46
2022/03/20 05:23:47;;;;;;;10.77;5.82;;;;;;;-8.28;83.46;97056.56;5021821;28;20546;-47
2022/03/20 05:26:14;;;;;;;10.00;6.55;;;;;;;-8.12;83.45;97063.50;5021406;28;20049;-45
2022/03/20 05:28:40;;;;;;;13.43;7.50;;;;;;;-8.00;83.69;97057.97;5022613;28;20111;-53
2022/03/20 05:31:07;;;;;;;14.82;7.05;;;;;;;-7.86;83.35;97062.47;5019546;28;20624;-47
2022/03/20 05:33:35;;;;;;;20.98;10.25;;;;;;;-7.72;83.41;97061.91;5019485;28;20085;-47
2022/03/20 05:36:02;;;;;;;17.67;10.32;;;;;;;-7.64;83.28;97052.28;5020262;28;20056;-47
2022/03/20 05:38:30;;;;;;;33.35;14.75;;;;;;;-7.46;83.15;97065.88;5023222;28;20438;-50
2022/03/20 05:41:46;;;;;;;27.63;14.13;;;;;;;-7.43;83.66;97062.41;5018224;28;20060;-48
2022/03/20 05:43:44;;;;;;;37.47;19.85;;;;;;;-7.22;83.74;97069.09;5018538;28;20052;-48
2022/03/20 05:46:11;;;;;;;38.05;19.92;;;;;;;-7.03;83.34;97068.28;5018481;28;20049;-46
2022/03/20 05:48:38;;;;;;;39.67;18.63;;;;;;;-6.89;83.12;97065.97;5019131;28;20042;-47
2022/03/20 05:51:05;;;;;;;27.60;12.18;;;;;;;-6.67;82.25;97070.06;5018450;28;20172;-48
2022/03/20 05:53:32;;;;;;;27.80;12.15;;;;;;;-6.55;82.14;97070.31;5020282;28;20046;-47
2022/03/20 05:58:58;;;;;;;15.13;7.50;;;;;;;-6.18;81.06;97072.84;5001410;28;20053;-49
2022/03/20 06:01:26;;;;;;;17.75;7.85;;;;;;;-6.07;81.03;97075.69;5025812;28;20049;-51
2022/03/20 06:03:53;;;;;;;21.08;8.00;;;;;;;-5.97;80.86;97071.84;5018843;28;20053;-48
2022/03/20 06:06:20;;;;;;;13.77;7.53;;;;;;;-5.92;80.66;97070.75;5021642;28;20437;-50
2022/03/20 06:08:49;;;;;;;20.20;10.35;;;;;;;-5.74;80.86;97077.50;5018268;28;20048;-50
2022/03/20 06:11:16;;;;;;;19.48;8.75;;;;;;;-5.61;79.77;97083.59;5019510;28;20507;-47
2022/03/20 06:13:45;;;;;;;15.93;8.43;;;;;;;-5.55;79.97;97077.41;5018833;28;20093;-47
2022/03/20 06:16:12;;;;;;;8.68;4.68;;;;;;;-5.47;79.78;97069.44;5018248;28;20042;-49
2022/03/20 06:18:39;;;;;;;12.15;6.85;;;;;;;-5.36;78.68;97064.63;5020617;28;20042;-48
2022/03/20 06:21:06;;;;;;;22.10;11.27;;;;;;;-5.18;78.94;97081.47;5020993;28;20045;-48
2022/03/20 06:23:33;;;;;;;16.52;8.38;;;;;;;-5.00;77.07;97073.81;5026012;28;20038;-50
2022/03/20 06:26:00;;;;;;;16.02;8.73;;;;;;;-4.95;76.27;97071.84;5018353;28;20050;-48
2022/03/20 06:28:27;;;;;;;15.80;7.28;;;;;;;-4.75;74.99;97075.03;5017968;28;20056;-50
2022/03/20 06:30:54;;;;;;;12.68;6.97;;;;;;;-4.60;74.13;97069.16;5019424;28;21943;-47
2022/03/20 06:33:21;;;;;;;18.20;8.75;;;;;;;-4.38;74.22;97085.81;5017962;28;20056;-50
2022/03/20 06:35:48;;;;;;;17.20;9.77;;;;;;;-4.22;72.91;97086.63;5017852;28;20052;-46
2022/03/20 06:38:15;;;;;;;20.73;10.88;;;;;;;-4.18;71.90;97074.53;5022586;28;20096;-48
2022/03/20 06:40:42;;;;;;;22.55;11.00;;;;;;;-3.93;71.73;97086.72;5022723;28;20052;-45
2022/03/20 06:43:09;;;;;;;12.55;7.10;;;;;;;-3.94;71.25;97082.56;5018597;28;20099;-51
2022/03/20 06:45:36;;;;;;;34.58;17.23;;;;;;;-3.82;71.52;97091.22;5018448;28;20034;-47
2022/03/20 06:48:04;;;;;;;23.42;12.20;;;;;;;-3.67;72.37;97098.81;5018783;28;20041;-51
2022/03/20 06:50:31;;;;;;;24.95;14.95;;;;;;;-3.69;71.81;97090.44;5019439;28;20037;-49
2022/03/20 06:53:02;;;;;;;24.50;11.20;;;;;;;-3.55;71.37;97081.19;5022111;28;20037;-46
2022/03/20 06:55:30;;;;;;;12.88;8.23;;;;;;;-3.56;70.93;97077.03;5017922;28;20044;-48
2022/03/20 06:57:58;;;;;;;15.52;8.18;;;;;;;-3.44;70.80;97078.84;5018508;28;20049;-45
2022/03/20 07:00:26;;;;;;;4.90;3.58;;;;;;;-3.49;71.94;97080.84;5019788;28;20053;-52
2022/03/20 07:03:00;;;;;;;14.98;9.25;;;;;;;-3.40;70.97;97079.47;5018393;28;20111;-47
2022/03/20 07:05:31;;;;;;;32.75;15.25;;;;;;;-3.29;71.21;97083.06;5022404;28;20061;-47
2022/03/20 07:07:59;;;;;;;16.75;9.32;;;;;;;-3.09;70.64;97088.72;5020368;28;20042;-47
2022/03/20 07:10:27;;;;;;;15.25;7.80;;;;;;;-2.88;68.56;97077.25;5021750;28;20061;-51
2022/03/20 07:15:41;;;;;;;24.83;10.85;;;;;;;-2.48;67.76;97073.16;5025913;28;20046;-49
2022/03/20 07:18:14;;;;;;;17.08;8.43;;;;;;;-2.28;65.57;97077.06;5020232;28;20041;-49
2022/03/20 07:20:43;;;;;;;16.42;5.50;;;;;;;-2.17;65.84;97078.00;5021702;28;20053;-49
2022/03/20 07:23:10;;;;;;;31.45;9.80;;;;;;;-1.97;64.81;97078.47;5024871;28;20380;-49
2022/03/20 07:31:11;;;;;;;21.42;13.43;;;;;;;-1.20;61.08;97073.50;5022124;28;20063;-51
2022/03/20 07:33:39;;;;;;;21.83;10.15;;;;;;;-1.00;60.33;97069.59;5022910;28;20041;-50
2022/03/20 07:36:07;;;;;;;15.05;7.53;;;;;;;-0.71;53.19;97074.47;5025035;28;20045;-49
2022/03/20 07:38:35;;;;;;;16.90;8.13;;;;;;;-0.36;58.27;97056.66;5022955;28;20095;-48
2022/03/20 07:41:02;;;;;;;11.63;4.50;;;;;;;0.08;49.88;97078.28;5023635;28;20052;-51
2022/03/20 07:43:29;;;;;;;8.07;4.47;;;;;;;0.35;45.87;97072.09;5023976;28;20120;-49
2022/03/20 07:45:56;;;;;;;10.27;4.82;;;;;;;0.61;46.45;97069.34;5023696;28;20044;-46
2022/03/20 07:48:24;;;;;;;11.85;5.82;;;;;;;0.99;44.61;97068.22;5021858;28;20048;-51
2022/03/20 07:50:51;;;;;;;20.20;7.15;;;;;;;1.12;44.19;97048.41;5021714;28;20060;-49
2022/03/20 07:53:18;;;;;;;23.05;10.48;;;;;;;1.36;42.08;97061.09;5025895;28;20532;-53
2022/03/20 07:55:46;;;;;;;8.60;4.72;;;;;;;1.60;41.59;97063.50;5023300;28;21054;-50
2022/03/20 07:58:22;;;;;;;10.55;4.30;;;;;;;1.76;40.60;97052.03;5025188;28;20045;-51
2022/03/20 08:00:49;;;;;;;7.03;3.55;;;;;;;1.79;39.45;97038.97;5029727;28;20037;-50
2022/03/20 08:03:16;;;;;;;5.22;3.50;;;;;;;1.83;38.37;97048.84;5025818;28;20045;-47
2022/03/20 08:05:43;;;;;;;7.65;3.53;;;;;;;1.83;38.72;97048.06;5024355;28;20065;-48
2022/03/20 08:08:14;;;;;;;7.03;3.55;;;;;;;1.94;38.31;97042.06;5021151;28;20772;-47
2022/03/20 08:10:42;;;;;;;9.15;3.95;;;;;;;2.18;38.76;97047.81;5023462;28;20064;-51
2022/03/20 08:13:10;;;;;;;10.48;4.35;;;;;;;2.34;38.12;97042.25;5024977;28;20434;-50
2022/03/20 08:15:38;;;;;;;8.88;3.88;;;;;;;2.32;36.75;97044.09;5025614;28;20466;-47
2022/03/20 08:18:07;;;;;;;7.43;4.10;;;;;;;2.47;37.02;97045.44;5024011;28;20056;-48
2022/03/20 08:20:35;;;;;;;9.98;4.30;;;;;;;2.64;37.50;97035.50;5023140;28;20092;-50
2022/03/20 08:23:03;;;;;;;10.90;4.70;;;;;;;2.73;37.16;97021.88;5023759;28;20049;-50
2022/03/20 08:25:31;;;;;;;7.95;3.88;;;;;;;2.84;36.35;97024.38;5022693;28;20046;-50
2022/03/20 08:27:58;;;;;;;6.25;3.95;;;;;;;2.63;34.44;97036.47;5019378;28;20045;-47
2022/03/20 08:30:25;;;;;;;9.13;3.20;;;;;;;2.43;35.72;97030.38;5021365;28;20041;-50
2022/03/20 08:32:53;;;;;;;12.63;4.88;;;;;;;2.25;35.45;97033.53;5022046;28;20103;-48
2022/03/20 08:35:20;;;;;;;10.73;6.05;;;;;;;2.48;36.80;97026.50;5021461;28;20099;-47
2022/03/20 08:37:49;;;;;;;7.07;3.30;;;;;;;2.86;35.84;97027.66;5023764;28;20117;-50
2022/03/20 08:40:19;;;;;;;9.38;4.68;;;;;;;3.08;35.08;97020.69;5015286;28;20045;-47
2022/03/20 08:42:47;;;;;;;7.72;3.58;;;;;;;3.14;34.25;97015.00;5016574;28;20041;-49
2022/03/20 08:45:16;;;;;;;7.97;5.25;;;;;;;3.35;34.94;97027.00;5022521;28;20107;-53
2022/03/20 08:47:44;;;;;;;8.35;5.20;;;;;;;3.42;34.60;97003.16;5018927;28;20049;-49
2022/03/20 08:50:13;;;;;;;9.20;3.85;;;;;;;3.64;34.51;97017.56;5025471;28;20672;-50
2022/03/20 08:52:44;;;;;;;14.98;3.83;;;;;;;3.66;32.49;97024.38;5023939;28;20048;-48
2022/03/20 08:55:13;;;;;;;6.07;3.72;;;;;;;3.79;32.83;97019.75;5019643;28;20046;-47
2022/03/20 08:57:42;;;;;;;8.45;3.97;;;;;;;3.83;33.66;97015.94;5019198;28;20037;-47
2022/03/20 09:00:10;;;;;;;8.25;3.33;;;;;;;3.88;33.47;97018.94;5019800;28;20048;-49
2022/03/20 09:02:37;;;;;;;7.65;4.53;;;;;;;4.14;34.07;97018.41;5020974;28;20041;-48
2022/03/20 09:05:05;;;;;;;7.05;3.08;;;;;;;4.26;32.12;97004.41;5020494;28;20045;-48
2022/03/20 09:07:32;;;;;;;9.57;4.07;;;;;;;4.32;32.60;97001.28;5032480;28;20052;-49
2022/03/20 09:09:59;;;;;;;7.80;4.07;;;;;;;4.47;32.94;97003.44;5019731;28;20060;-47
2022/03/20 09:12:26;;;;;;;11.45;5.72;;;;;;;4.67;31.67;96994.69;5021109;28;20099;-51
2022/03/20 09:14:53;;;;;;;9.82;4.95;;;;;;;4.83;31.38;96988.13;5022084;28;20050;-51
2022/03/20 09:20:06;;;;;;;8.43;5.38;;;;;;;5.02;31.82;96988.03;5017942;28;20053;-52
2022/03/20 09:22:34;;;;;;;5.50;3.30;;;;;;;5.21;31.92;96986.31;5032690;28;20060;-47
2022/03/20 09:25:01;;;;;;;10.20;3.92;;;;;;;5.34;31.42;96990.16;5018606;28;20061;-50
2022/03/20 09:27:28;;;;;;;6.60;3.58;;;;;;;5.45;30.41;96984.00;5022767;28;20057;-52
2022/03/20 09:29:56;;;;;;;13.02;6.82;;;;;;;5.38;32.08;96964.84;5020169;28;20411;-47
2022/03/20 09:32:23;;;;;;;8.55;3.97;;;;;;;5.59;30.17;96981.88;5018219;28;20049;-53
2022/03/20 09:34:50;;;;;;;6.88;3.97;;;;;;;5.77;29.37;96977.53;5018422;28;20033;-54
2022/03/20 09:37:17;;;;;;;5.43;3.22;;;;;;;5.85;30.75;96975.03;5021533;28;20061;-53
2022/03/20 09:39:44;;;;;;;7.07;3.78;;;;;;;5.96;28.83;96980.94;5018355;28;20037;-52
2022/03/20 09:42:11;;;;;;;10.27;5.50;;;;;;;6.04;29.92;96976.66;5016450;28;20056;-51
2022/03/20 09:44:39;;;;;;;6.55;4.80;;;;;;;6.17;29.10;96968.50;5016034;28;20118;-49
2022/03/20 09:47:13;;;;;;;9.52;3.83;;;;;;;6.21;28.67;96969.84;5015841;28;20525;-51
2022/03/20 09:49:41;;;;;;;7.40;3.50;;;;;;;6.38;28.40;96967.34;5015996;28;20038;-51
2022/03/20 09:52:09;;;;;;;7.30;3.15;;;;;;;6.46;29.19;96962.22;5017005;28;20092;-52
2022/03/20 09:54:36;;;;;;;5.40;3.75;;;;;;;6.67;27.98;96954.91;5018487;28;20115;-49
2022/03/20 09:57:05;;;;;;;9.07;3.80;;;;;;;6.82;30.18;96957.72;5016443;28;20703;-49
2022/03/20 09:59:33;;;;;;;6.75;3.30;;;;;;;6.85;28.29;96959.19;5015584;28;20050;-45
2022/03/20 10:02:05;;;;;;;6.72;4.40;;;;;;;6.82;28.43;96956.91;5017223;28;20056;-52
2022/03/20 10:04:35;;;;;;;6.70;3.50;;;;;;;6.87;28.44;96959.84;5018847;28;20692;-50
2022/03/20 10:07:01;;;;;;;5.20;3.30;;;;;;;6.87;27.88;96949.50;5018758;28;20041;-50
2022/03/20 10:09:29;;;;;;;12.63;4.00;;;;;;;6.91;27.83;96935.25;5019103;28;20056;-49
2022/03/20 10:11:57;;;;;;;6.38;3.40;;;;;;;6.90;29.80;96946.59;5022654;28;20054;-53
2022/03/20 10:14:26;;;;;;;6.22;3.92;;;;;;;7.20;28.64;96939.25;5018476;28;20050;-51
2022/03/20 10:17:17;;;;;;;10.32;4.63;;;;;;;7.28;28.81;96947.06;5019841;28;20058;-49
2022/03/20 10:19:44;;;;;;;6.95;3.30;;;;;;;7.44;28.19;96947.09;5017215;28;20549;-52
2022/03/20 10:22:14;;;;;;;6.63;3.25;;;;;;;7.41;27.90;96951.78;5019800;28;20076;-53
2022/03/20 10:24:48;;;;;;;5.00;3.35;;;;;;;7.18;28.23;96936.00;5018850;28;20049;-51
2022/03/20 10:27:15;;;;;;;7.68;3.38;;;;;;;7.17;29.04;96944.75;5019999;28;20061;-48
2022/03/20 10:29:49;;;;;;;7.00;4.15;;;;;;;7.58;28.44;96937.06;5019071;28;20060;-47
2022/03/20 10:32:16;;;;;;;7.78;4.45;;;;;;;7.73;28.53;96935.47;5019050;28;20042;-49
2022/03/20 10:34:51;;;;;;;8.73;4.82;;;;;;;7.86;27.59;96940.16;5016750;28;20058;-48
2022/03/20 10:37:20;;;;;;;6.22;3.55;;;;;;;7.89;28.41;96939.06;5020601;28;20095;-51
2022/03/20 10:39:47;;;;;;;7.13;4.35;;;;;;;8.04;26.27;96937.41;5018201;28;20042;-50
2022/03/20 10:42:15;;;;;;;7.65;3.65;;;;;;;7.99;25.64;96930.09;5019616;28;20049;-50
2022/03/20 10:44:42;;;;;;;11.43;4.28;;;;;;;8.08;25.42;96938.69;5022151;28;20038;-50
2022/03/20 10:47:13;;;;;;;6.30;3.65;;;;;;;8.20;26.59;96934.78;5019100;28;20052;-52
2022/03/20 10:50:00;;;;;;;29.55;9.15;;;;;;;8.40;26.66;96926.66;5017931;28;20042;-49
2022/03/20 10:52:29;;;;;;;8.30;4.65;;;;;;;8.70;26.89;96921.75;5016101;28;20046;-49
2022/03/20 10:54:57;;;;;;;5.80;3.60;;;;;;;8.88;26.06;96929.31;5018533;28;20465;-49
2022/03/20 10:57:32;;;;;;;4.97;3.72;;;;;;;8.99;25.50;96914.16;5019226;28;20045;-47
2022/03/20 11:00:05;;;;;;;6.95;3.83;;;;;;;9.13;24.95;96922.22;5019108;28;20160;-49
2022/03/20 11:02:35;;;;;;;7.22;3.58;;;;;;;9.32;24.50;96919.19;5021637;28;20041;-47
2022/03/20 11:05:02;;;;;;;7.70;3.67;;;;;;;9.30;24.40;96918.53;5022060;28;20115;-48
2022/03/20 11:07:28;;;;;;;5.90;3.42;;;;;;;9.42;24.96;96905.97;5022504;28;20056;-51
2022/03/20 11:09:55;;;;;;;6.70;3.65;;;;;;;9.35;24.98;96905.84;5021060;28;20045;-53
2022/03/20 11:12:33;;;;;;;7.25;3.70;;;;;;;9.00;24.36;96912.34;5021997;28;20053;-49
2022/03/20 11:15:02;;;;;;;6.10;3.25;;;;;;;8.84;24.86;96907.22;5022431;28;20120;-51
2022/03/20 11:17:43;;;;;;;7.50;4.07;;;;;;;9.01;24.75;96902.78;5023914;28;20431;-47
2022/03/20 11:20:16;;;;;;;6.43;4.00;;;;;;;9.18;24.77;96899.09;5022845;28;20104;-49
2022/03/20 11:22:50;;;;;;;5.93;3.40;;;;;;;9.10;24.04;96896.56;5021652;28;20045;-50
2022/03/20 11:25:20;;;;;;;5.38;3.22;;;;;;;9.15;24.27;96902.88;5027768;28;20092;-51
2022/03/20 11:27:55;;;;;;;6.80;4.38;;;;;;;9.33;24.07;96892.22;5021923;28;20164;-52
2022/03/20 11:30:28;;;;;;;7.22;3.15;;;;;;;9.09;24.84;96905.34;5019502;28;20846;-49
2022/03/20 11:32:57;;;;;;;5.78;3.30;;;;;;;9.13;22.44;96896.25;5024383;28;20406;-47
2022/03/20 11:35:27;;;;;;;8.07;3.60;;;;;;;9.12;25.02;96884.22;5022956;28;20045;-48
2022/03/20 11:37:58;;;;;;;7.00;3.78;;;;;;;9.54;23.57;96898.56;5025382;28;20053;-47
2022/03/20 11:40:26;;;;;;;5.25;3.40;;;;;;;9.69;24.57;96886.44;5016156;28;20045;-48
2022/03/20 11:43:11;;;;;;;11.45;4.97;;;;;;;9.49;24.65;96882.66;5021757;28;20060;-48
2022/03/20 11:45:39;;;;;;;6.72;3.85;;;;;;;8.88;25.38;96888.56;5020391;28;20053;-49
2022/03/20 11:48:14;;;;;;;9.65;4.25;;;;;;;8.68;24.52;96882.94;5025352;28;20041;-48
2022/03/20 11:50:50;;;;;;;11.05;4.60;;;;;;;8.10;24.75;96879.66;5019933;28;20042;-49
2022/03/20 11:53:28;;;;;;;9.48;4.38;;;;;;;8.22;26.01;96867.94;5021719;28;20056;-46
2022/03/20 11:55:55;;;;;;;8.50;4.57;;;;;;;8.51;25.36;96869.19;5018679;28;20068;-50
2022/03/20 11:58:24;;;;;;;9.00;3.75;;;;;;;8.84;24.72;96861.28;5016526;28;20052;-48
2022/03/20 12:01:02;;;;;;;12.38;4.50;;;;;;;8.89;25.15;96869.38;5019753;28;20038;-49
2022/03/20 12:03:48;;;;;;;11.20;4.78;;;;;;;8.59;25.52;96858.78;5020171;28;20056;-50
2022/03/20 12:06:42;;;;;;;18.75;4.95;;;;;;;8.90;25.33;96860.59;5020572;28;20064;-50
2022/03/20 12:09:38;;;;;;;2.40;1.45;;;;;;;8.28;25.30;96858.69;5022017;28;20049;-49
2022/03/20 12:12:54;;;;;;;11.32;5.18;;;;;;;8.56;24.40;96847.94;5021942;28;20087;-52
2022/03/20 12:15:25;;;;;;;14.23;6.13;;;;;;;8.59;26.10;96843.22;4996850;28;20654;-48